Time;durP1;ratioP1;P1;durP2;ratioP2;P2;SDS_P1;SDS_P2;PMS_P1;PMS_P2;Temp;Humidity;BMP_temperature;BMP_pressure;BME280_temperature;BME280_humidity;BME280_pressure;Samples;Min_cycle;Max_cycle;Signal;HPM_P1;HPM_P2
2022/03/25 00:01:33;;;;;;;;;52.75;43.75;;;;;13.97;33.62;102026.53;5050374;28;45350;-86
2022/03/25 00:03:58;;;;;;;;;59.00;47.00;;;;;13.94;33.71;102031.75;5058392;28;46170;-84
2022/03/25 00:06:26;;;;;;;;;62.25;49.75;;;;;13.92;34.01;102027.31;5065578;28;45179;-82
2022/03/25 00:08:52;;;;;;;;;63.25;46.50;;;;;13.93;34.23;102040.56;5067277;28;45236;-85
2022/03/25 00:11:17;;;;;;;;;61.25;49.25;;;;;13.82;34.19;102028.03;5057591;28;45268;-86
2022/03/25 00:13:43;;;;;;;;;59.50;49.00;;;;;13.90;33.72;102039.66;5055283;28;45459;-86
2022/03/25 00:16:09;;;;;;;;;61.75;48.25;;;;;13.80;33.65;102028.03;5058117;28;45468;-82
2022/03/25 00:18:34;;;;;;;;;56.50;45.25;;;;;13.46;33.92;101973.66;5058626;28;45409;-83
2022/03/25 00:21:00;;;;;;;;;58.25;46.00;;;;;13.82;33.28;102052.78;5058030;28;45422;-79
2022/03/25 00:23:26;;;;;;;;;54.50;43.50;;;;;13.81;34.02;102044.81;5057539;28;45360;-81
2022/03/25 00:25:52;;;;;;;;;62.25;48.75;;;;;13.71;34.17;102033.19;5058467;28;46554;-81
2022/03/25 00:28:17;;;;;;;;;62.25;46.50;;;;;13.71;33.85;102029.66;5051342;28;45964;-84
2022/03/25 00:30:43;;;;;;;;;56.50;47.50;;;;;13.72;34.38;102045.56;5057054;28;45338;-81
2022/03/25 00:33:09;;;;;;;;;58.00;47.00;;;;;13.68;34.24;102043.75;5050996;28;46387;-79
2022/03/25 00:35:34;;;;;;;;;50.75;38.50;;;;;13.64;33.77;102031.31;5057518;28;45378;-84
2022/03/25 00:38:00;;;;;;;;;58.00;48.00;;;;;13.65;34.01;102036.63;5057991;28;45459;-82
2022/03/25 00:40:26;;;;;;;;;59.25;47.50;;;;;13.65;33.99;102038.38;5057848;28;45560;-82
2022/03/25 00:42:51;;;;;;;;;54.50;45.25;;;;;13.30;34.30;101982.22;5066025;28;46027;-78
2022/03/25 00:45:17;;;;;;;;;55.50;47.25;;;;;13.60;33.87;102040.97;5058184;28;45161;-79
2022/03/25 00:47:43;;;;;;;;;60.75;50.00;;;;;13.53;34.00;102028.50;5057421;28;45598;-78
2022/03/25 00:50:11;;;;;;;;;62.25;49.75;;;;;13.50;34.11;102031.09;5053938;28;45535;-79
2022/03/25 00:52:37;;;;;;;;;57.00;45.75;;;;;13.47;34.53;102040.72;5055589;28;45322;-85
2022/03/25 00:55:04;;;;;;;;;43.75;38.25;;;;;13.47;34.42;102033.69;5055624;28;45458;-82
2022/03/25 00:57:29;;;;;;;;;60.00;49.00;;;;;13.43;34.61;102037.16;5054714;28;45497;-78
2022/03/25 00:59:55;;;;;;;;;56.00;41.25;;;;;13.34;35.14;102029.06;5056712;28;45308;-79
2022/03/25 01:02:21;;;;;;;;;59.00;47.00;;;;;13.32;35.43;102044.03;5055582;28;45590;-78
2022/03/25 01:04:46;;;;;;;;;62.50;46.00;;;;;13.13;35.16;102008.41;5057587;28;45377;-80
2022/03/25 01:07:12;;;;;;;;;61.75;49.00;;;;;13.15;35.22;102024.28;5058876;28;45215;-79
2022/03/25 01:09:37;;;;;;;;;60.50;47.50;;;;;13.20;34.88;102028.81;5050652;28;45424;-79
2022/03/25 01:12:03;;;;;;;;;54.75;41.75;;;;;13.17;35.25;102034.03;5049160;28;46148;-76
2022/03/25 01:14:28;;;;;;;;;54.50;44.75;;;;;13.08;35.08;102021.53;5052676;28;45523;-78
2022/03/25 01:16:54;;;;;;;;;58.75;48.25;;;;;13.05;35.41;102020.59;5049615;28;45616;-79
2022/03/25 01:19:20;;;;;;;;;56.25;45.25;;;;;12.93;35.89;102009.78;5055039;28;45567;-79
2022/03/25 01:21:46;;;;;;;;;57.50;45.75;;;;;13.00;35.68;102019.59;5049813;28;45487;-80
2022/03/25 01:24:12;;;;;;;;;58.50;46.75;;;;;12.99;35.74;102025.75;5043016;28;45733;-81
2022/03/25 01:26:37;;;;;;;;;66.75;50.25;;;;;12.95;36.16;102027.47;5041640;28;45457;-81
2022/03/25 01:29:04;;;;;;;;;63.25;50.00;;;;;12.87;36.29;102013.22;5048374;28;46841;-79
2022/03/25 01:31:32;;;;;;;;;63.75;50.00;;;;;12.86;35.96;102010.53;5041300;28;46127;-79
2022/03/25 01:33:58;;;;;;;;;63.25;49.75;;;;;12.88;35.78;102016.75;5037177;28;46275;-81
2022/03/25 01:36:23;;;;;;;;;60.25;46.75;;;;;12.72;36.46;101997.06;5037895;28;45509;-80
2022/03/25 01:38:49;;;;;;;;;61.75;49.50;;;;;12.76;35.76;102007.72;5040856;28;45592;-81
2022/03/25 01:41:18;;;;;;;;;60.25;45.50;;;;;12.75;35.83;102010.31;5037740;28;47871;-80
2022/03/25 01:43:52;;;;;;;;;61.25;47.25;;;;;12.72;36.66;102008.50;5035773;28;45544;-79
2022/03/25 01:46:18;;;;;;;;;62.00;48.75;;;;;12.52;35.98;101984.34;5035024;28;46801;-81
2022/03/25 01:48:43;;;;;;;;;60.00;48.50;;;;;12.64;36.63;102009.22;5041192;28;45818;-80
2022/03/25 01:51:08;;;;;;;;;58.50;46.00;;;;;12.63;36.09;102010.09;5034620;28;46056;-80
2022/03/25 01:53:34;;;;;;;;;59.25;46.75;;;;;12.53;36.21;101990.53;5040079;28;45539;-80
2022/03/25 01:56:01;;;;;;;;;61.25;44.50;;;;;12.58;36.18;102009.13;5037335;28;46469;-79
2022/03/25 01:58:30;;;;;;;;;62.75;49.00;;;;;12.52;36.93;102013.41;5041334;28;46853;-82
2022/03/25 02:00:56;;;;;;;;;61.50;47.50;;;;;12.42;37.05;102008.81;5034599;28;46645;-78
2022/03/25 02:03:22;;;;;;;;;59.25;47.00;;;;;12.44;36.89;102004.44;5038264;28;47128;-80
2022/03/25 02:05:48;;;;;;;;;61.25;48.00;;;;;12.44;36.33;102012.38;5035294;28;45530;-82
2022/03/25 02:08:15;;;;;;;;;61.00;48.00;;;;;12.16;37.09;101958.09;5044267;28;45410;-79
2022/03/25 02:10:42;;;;;;;;;59.50;47.25;;;;;12.39;37.35;102007.88;5036457;28;45506;-80
2022/03/25 02:13:08;;;;;;;;;63.25;49.50;;;;;12.36;37.86;102013.06;5035980;28;45543;-80
2022/03/25 02:15:34;;;;;;;;;59.00;45.75;;;;;12.34;37.65;102004.22;5034278;28;47066;-79
2022/03/25 02:18:10;;;;;;;;;60.25;48.50;;;;;12.31;37.06;102002.44;5041966;28;45659;-82
2022/03/25 02:20:37;;;;;;;;;56.25;46.75;;;;;12.30;37.66;102012.97;5034151;28;45547;-82
2022/03/25 02:23:04;;;;;;;;;57.75;46.50;;;;;11.91;37.97;101947.84;5034727;28;47212;-81
2022/03/25 02:25:31;;;;;;;;;56.00;44.50;;;;;12.17;37.28;101998.59;5034994;28;45651;-81
2022/03/25 02:28:00;;;;;;;;;58.25;48.00;;;;;12.21;37.88;102003.09;5042966;28;46953;-80
2022/03/25 02:30:27;;;;;;;;;54.25;45.75;;;;;12.18;37.64;102003.00;5042008;28;45567;-81
2022/03/25 02:32:53;;;;;;;;;65.75;47.50;;;;;11.84;37.28;101960.06;5034708;28;46280;-79
2022/03/25 02:35:19;;;;;;;;;62.00;47.25;;;;;12.15;38.00;102008.25;5033604;28;45653;-81
2022/03/25 02:37:45;;;;;;;;;64.50;50.25;;;;;12.12;37.19;102002.91;5042158;28;46821;-80
2022/03/25 02:40:10;;;;;;;;;57.00;46.50;;;;;12.09;38.17;101998.44;5035952;28;45970;-83
2022/03/25 02:42:36;;;;;;;;;58.25;45.00;;;;;12.08;38.17;102006.31;5051045;28;45240;-82
2022/03/25 02:45:02;;;;;;;;;64.75;49.75;;;;;12.09;37.33;102010.75;5057198;28;45235;-81
2022/03/25 02:47:27;;;;;;;;;60.00;49.00;;;;;12.08;37.95;102015.13;5056763;28;45227;-82
2022/03/25 02:49:52;;;;;;;;;63.00;48.50;;;;;11.89;38.27;101984.78;5054974;28;47083;-82
2022/03/25 02:52:18;;;;;;;;;65.00;47.75;;;;;11.95;38.60;101995.50;5057063;28;45326;-82
2022/03/25 02:54:43;;;;;;;;;63.50;49.75;;;;;11.97;37.99;102011.38;5057482;28;45216;-81
2022/03/25 02:57:09;;;;;;;;;58.50;46.00;;;;;11.90;38.18;101997.13;5054997;28;45474;-80
2022/03/25 02:59:35;;;;;;;;;60.25;47.50;;;;;11.92;38.31;102007.75;5055466;28;47824;-81
2022/03/25 03:02:00;;;;;;;;;58.75;48.00;;;;;11.88;38.26;102003.25;5056352;28;45434;-81
2022/03/25 03:04:27;;;;;;;;;64.75;49.00;;;;;11.90;38.87;102001.53;5058751;28;45337;-80
2022/03/25 03:06:53;;;;;;;;;62.25;48.50;;;;;11.89;38.38;102005.03;5060139;28;45298;-82
2022/03/25 03:09:18;;;;;;;;;57.25;46.00;;;;;11.89;38.13;102012.94;5054471;28;46044;-81
2022/03/25 03:11:44;;;;;;;;;60.50;47.25;;;;;11.88;38.68;102008.53;5056571;28;45241;-81
2022/03/25 03:14:09;;;;;;;;;62.75;49.00;;;;;11.87;39.04;102005.00;5072592;28;45263;-82
2022/03/25 03:16:35;;;;;;;;;57.50;46.50;;;;;11.85;38.86;102011.13;5055770;28;45466;-79
2022/03/25 03:19:00;;;;;;;;;57.75;47.50;;;;;11.62;38.79;101979.75;5057427;28;45826;-80
2022/03/25 03:21:26;;;;;;;;;58.75;47.75;;;;;11.81;38.81;102012.78;5058985;28;45416;-80
2022/03/25 03:23:52;;;;;;;;;59.75;47.00;;;;;11.79;38.52;102005.66;5060227;28;45369;-80
2022/03/25 03:26:18;;;;;;;;;58.25;46.50;;;;;11.76;38.89;102010.88;5060231;28;45268;-78
2022/03/25 03:28:44;;;;;;;;;63.25;49.25;;;;;11.74;38.86;102013.47;5059966;28;45588;-80
2022/03/25 03:31:09;;;;;;;;;57.75;47.50;;;;;11.53;39.63;101990.09;5055927;28;45324;-79
2022/03/25 03:33:35;;;;;;;;;47.75;39.50;;;;;11.64;39.76;101998.28;5059866;28;45465;-81
2022/03/25 03:36:00;;;;;;;;;64.50;46.50;;;;;11.57;39.25;102001.63;5059875;28;45461;-78
2022/03/25 03:38:26;;;;;;;;;48.75;39.75;;;;;11.64;39.03;102011.50;5058195;28;46349;-79
2022/03/25 03:40:51;;;;;;;;;65.50;48.25;;;;;11.49;40.00;101980.34;5063995;28;45328;-79
2022/03/25 03:43:17;;;;;;;;;63.75;50.75;;;;;11.61;39.50;102001.72;5060517;28;45379;-79
2022/03/25 03:45:42;;;;;;;;;64.00;49.75;;;;;11.49;39.93;101987.38;5060079;28;45287;-80
2022/03/25 03:48:08;;;;;;;;;62.25;49.00;;;;;11.51;40.06;101994.44;5057721;28;47211;-81
2022/03/25 03:50:33;;;;;;;;;60.25;49.00;;;;;11.54;40.59;102001.53;5059037;28;45426;-80
2022/03/25 03:52:58;;;;;;;;;65.75;50.00;;;;;11.51;39.65;102005.00;5058886;28;45747;-79
2022/03/25 03:55:24;;;;;;;;;56.75;47.50;;;;;11.45;39.57;101998.69;5059609;28;45208;-79
2022/03/25 03:57:49;;;;;;;;;58.50;43.25;;;;;11.49;40.06;102004.09;5059261;28;45924;-80
2022/03/25 04:00:15;;;;;;;;;64.75;48.00;;;;;11.45;40.09;102002.25;5059552;28;45343;-83
2022/03/25 04:02:42;;;;;;;;;63.25;46.25;;;;;11.42;39.98;102003.03;5058128;28;45485;-80
2022/03/25 04:05:07;;;;;;;;;61.25;49.50;;;;;11.42;40.55;102010.06;5058980;28;45215;-82
2022/03/25 04:07:47;;;;;;;;;57.50;47.00;;;;;11.35;40.47;102003.78;5058667;28;45368;-81
2022/03/25 04:10:14;;;;;;;;;58.75;46.00;;;;;11.33;40.90;101994.91;5057503;28;45497;-80
2022/03/25 04:12:40;;;;;;;;;62.75;46.50;;;;;11.36;40.68;102009.94;5057841;28;45348;-82
2022/03/25 04:15:09;;;;;;;;;64.00;49.00;;;;;11.35;41.16;102010.75;5061622;28;45437;-83
2022/03/25 04:17:36;;;;;;;;;60.75;49.75;;;;;11.34;40.96;102004.59;5067245;28;45971;-80
2022/03/25 04:20:02;;;;;;;;;60.50;46.50;;;;;11.27;40.99;102007.06;5059187;28;45326;-83
2022/03/25 04:22:27;;;;;;;;;43.25;35.50;;;;;11.30;40.95;102010.66;5058147;28;45359;-81
2022/03/25 04:24:54;;;;;;;;;55.50;45.25;;;;;11.29;41.32;102008.88;5058578;28;45346;-80
2022/03/25 04:27:20;;;;;;;;;59.25;45.75;;;;;11.27;40.65;102015.88;5058199;28;46065;-80
2022/03/25 04:29:45;;;;;;;;;59.00;48.00;;;;;11.23;40.96;102010.47;5058018;28;45207;-81
2022/03/25 04:32:10;;;;;;;;;58.75;49.75;;;;;11.20;41.82;102016.56;5056867;28;45816;-81
2022/03/25 04:34:36;;;;;;;;;63.50;50.00;;;;;11.19;41.00;102005.97;5053478;28;45523;-81
2022/03/25 04:37:01;;;;;;;;;58.50;45.75;;;;;11.19;41.85;102012.16;5058143;28;46100;-83
2022/03/25 04:39:27;;;;;;;;;61.00;50.50;;;;;11.10;41.54;102004.88;5058981;28;45236;-81
2022/03/25 04:41:52;;;;;;;;;58.00;47.50;;;;;10.98;41.23;101982.56;5057997;28;45181;-81
2022/03/25 04:44:17;;;;;;;;;59.25;45.00;;;;;10.88;41.54;101977.91;5058071;28;45393;-83
2022/03/25 04:46:43;;;;;;;;;58.50;47.75;;;;;11.09;41.93;102020.69;5058626;28;45443;-82
2022/03/25 04:49:09;;;;;;;;;60.75;47.75;;;;;10.79;41.90;101971.53;5058788;28;45398;-82
2022/03/25 04:51:35;;;;;;;;;57.25;44.25;;;;;11.03;42.02;102026.69;5065653;28;45468;-82
2022/03/25 04:54:01;;;;;;;;;59.50;46.00;;;;;10.86;42.19;101998.97;5063394;28;45424;-81
2022/03/25 04:56:26;;;;;;;;;63.25;47.75;;;;;10.95;42.41;102029.97;5058716;28;46019;-82
2022/03/25 04:58:52;;;;;;;;;57.75;47.25;;;;;10.92;41.54;102028.16;5057863;28;45386;-82
2022/03/25 05:01:17;;;;;;;;;57.00;46.50;;;;;10.87;42.14;102036.78;5057687;28;45452;-82
2022/03/25 05:03:46;;;;;;;;;61.25;49.00;;;;;10.77;42.61;102031.25;5057278;28;45408;-78
2022/03/25 05:06:11;;;;;;;;;72.00;51.75;;;;;10.78;42.23;102037.41;5040020;28;45437;-83
2022/03/25 05:08:36;;;;;;;;;60.25;50.25;;;;;10.72;42.69;102030.25;5058505;28;45382;-81
2022/03/25 05:11:02;;;;;;;;;58.75;48.25;;;;;10.71;42.43;102040.75;5058747;28;45545;-82
2022/03/25 05:13:28;;;;;;;;;62.75;50.25;;;;;10.46;43.18;101994.38;5055783;28;45271;-79
2022/03/25 05:15:53;;;;;;;;;71.50;52.75;;;;;10.63;43.43;102032.63;5038561;28;46828;-81
2022/03/25 05:18:18;;;;;;;;;62.25;49.75;;;;;10.59;43.44;102024.56;5038095;28;45532;-82
2022/03/25 05:20:44;;;;;;;;;60.75;46.25;;;;;10.66;43.07;102043.25;5035293;28;47241;-82
2022/03/25 05:23:09;;;;;;;;;54.25;44.25;;;;;10.15;43.22;101959.25;5040675;28;45466;-80
2022/03/25 05:25:35;;;;;;;;;65.00;50.00;;;;;10.48;43.59;102021.66;5034180;28;47530;-82
2022/03/25 05:28:00;;;;;;;;;58.50;45.00;;;;;10.55;43.94;102042.06;5042746;28;46390;-78
2022/03/25 05:30:31;;;;;;;;;58.75;49.00;;;;;10.46;43.39;102023.34;5036108;28;45531;-79
2022/03/25 05:32:58;;;;;;;;;59.25;45.75;;;;;10.43;43.64;102024.16;5042136;28;45498;-81
2022/03/25 05:35:25;;;;;;;;;64.25;49.00;;;;;10.46;43.26;102036.53;5033765;28;46991;-81
2022/03/25 05:37:51;;;;;;;;;63.00;50.50;;;;;10.15;44.02;101995.22;5034365;28;46056;-82
2022/03/25 05:40:20;;;;;;;;;65.75;49.50;;;;;10.39;44.40;102039.81;5034285;28;45497;-82
2022/03/25 05:42:46;;;;;;;;;62.25;49.25;;;;;10.39;44.39;102050.34;5043523;28;45597;-83
2022/03/25 05:45:12;;;;;;;;;60.75;48.75;;;;;10.36;43.96;102040.63;5034951;28;45633;-82
2022/03/25 05:47:39;;;;;;;;;62.50;50.00;;;;;10.40;44.57;102050.41;5033406;28;45580;-81
2022/03/25 05:50:06;;;;;;;;;65.00;51.00;;;;;10.36;43.85;102034.47;5033016;28;45741;-79
2022/03/25 05:52:32;;;;;;;;;69.75;52.75;;;;;10.44;43.96;102049.66;5041472;28;46020;-80
2022/03/25 05:54:57;;;;;;;;;60.00;49.50;;;;;10.45;43.56;102051.44;5033969;28;46338;-80
2022/03/25 05:57:23;;;;;;;;;61.25;48.00;;;;;10.45;44.11;102056.72;5033976;28;45520;-81
2022/03/25 05:59:48;;;;;;;;;61.00;47.25;;;;;10.43;44.26;102058.41;5036059;28;45533;-81
2022/03/25 06:02:14;;;;;;;;;60.25;47.75;;;;;10.45;44.08;102059.34;5053715;28;45524;-80
2022/03/25 06:04:40;;;;;;;;;65.00;47.67;;;;;10.45;44.31;102056.72;5044396;28;46384;-83
2022/03/25 06:07:06;;;;;;;;;61.75;49.75;;;;;10.46;44.45;102050.59;5057500;28;45464;-84
2022/03/25 06:09:32;;;;;;;;;61.75;49.25;;;;;10.24;44.57;102016.59;5057810;28;45279;-83
2022/03/25 06:11:57;;;;;;;;;63.75;52.25;;;;;10.42;43.98;102055.72;5042702;28;47076;-83
2022/03/25 06:14:24;;;;;;;;;62.50;50.00;;;;;10.50;44.27;102073.53;5034094;28;46063;-82
2022/03/25 06:16:50;;;;;;;;;64.33;51.67;;;;;10.25;43.97;102021.88;5034396;28;47013;-81
2022/03/25 06:19:15;;;;;;;;;65.00;50.67;;;;;10.46;44.05;102062.88;5039989;28;46002;-80
2022/03/25 06:21:40;;;;;;;;;60.75;49.25;;;;;10.60;43.78;102077.31;5037964;28;47099;-81
2022/03/25 06:24:07;;;;;;;;;64.00;50.00;;;;;10.62;43.86;102078.28;5056338;28;46549;-81
2022/03/25 06:26:32;;;;;;;;;62.75;47.75;;;;;10.61;43.90;102071.22;5055876;28;45569;-81
2022/03/25 06:28:58;;;;;;;;;67.75;51.75;;;;;10.68;43.99;102085.44;5056369;28;45420;-82
2022/03/25 06:31:23;;;;;;;;;56.67;46.33;;;;;10.71;43.59;102075.91;5055825;28;45417;-83
2022/03/25 06:33:49;;;;;;;;;64.75;49.25;;;;;10.72;43.45;102082.06;5057560;28;46602;-83
2022/03/25 06:36:14;;;;;;;;;63.67;51.67;;;;;10.75;43.96;102084.78;5052041;28;45601;-78
2022/03/25 06:38:40;;;;;;;;;63.00;48.50;;;;;10.82;43.88;102090.28;5060265;28;45441;-80
2022/03/25 06:41:06;;;;;;;;;69.25;52.00;;;;;10.88;43.55;102094.81;5056708;28;45237;-80
2022/03/25 06:43:32;;;;;;;;;62.00;49.75;;;;;10.69;43.06;102052.97;5057497;28;46103;-81
2022/03/25 06:45:58;;;;;;;;;55.00;45.00;;;;;10.93;43.00;102090.56;5057301;28;45337;-81
2022/03/25 06:48:24;;;;;;;;;62.50;49.50;;;;;10.97;43.33;102078.34;5056328;28;45487;-82
2022/03/25 06:50:50;;;;;;;;;64.00;50.50;;;;;10.63;43.77;102014.19;5056514;28;45359;-83
2022/03/25 06:53:15;;;;;;;;;63.00;51.00;;;;;11.17;43.18;102098.25;5057581;28;45312;-82
2022/03/25 06:55:43;;;;;;;;;64.25;51.25;;;;;11.25;42.64;102101.97;5060252;28;45337;-83
2022/03/25 06:58:09;;;;;;;;;63.25;49.25;;;;;11.31;42.77;102091.59;5058733;28;45261;-81
2022/03/25 07:00:35;;;;;;;;;56.75;44.00;;;;;11.37;43.10;102090.88;5060549;28;45301;-83
2022/03/25 07:03:00;;;;;;;;;65.50;52.75;;;;;11.48;42.04;102102.59;5059578;28;46689;-84
2022/03/25 07:05:29;;;;;;;;;63.00;49.25;;;;;11.53;41.83;102108.84;5060554;28;45215;-81
2022/03/25 07:07:56;;;;;;;;;66.50;52.00;;;;;11.58;42.54;102104.59;5061514;28;45381;-80
2022/03/25 07:10:23;;;;;;;;;60.00;47.25;;;;;11.37;42.08;102056.56;5060839;28;45315;-82
2022/03/25 07:12:50;;;;;;;;;64.75;50.25;;;;;11.70;42.23;102106.63;5061169;28;45294;-80
2022/03/25 07:15:16;;;;;;;;;64.00;49.50;;;;;11.79;41.60;102108.63;5070777;28;45164;-83
2022/03/25 07:17:43;;;;;;;;;62.75;51.50;;;;;11.87;40.81;102110.63;5059803;28;45398;-82
2022/03/25 07:20:13;;;;;;;;;68.50;53.00;;;;;11.89;41.46;102098.34;5059609;28;45279;-79
2022/03/25 07:22:40;;;;;;;;;69.75;51.25;;;;;12.01;41.75;102115.34;5059412;28;46326;-79
2022/03/25 07:25:06;;;;;;;;;72.75;51.50;;;;;12.06;40.84;102113.69;5059335;28;45401;-79
2022/03/25 07:27:32;;;;;;;;;66.25;51.50;;;;;12.11;40.63;102114.72;5058385;28;45273;-80
2022/03/25 07:29:57;;;;;;;;;64.75;51.75;;;;;12.21;40.39;102119.34;5059572;28;45268;-80
2022/03/25 07:32:23;;;;;;;;;64.75;51.75;;;;;12.21;41.18;102103.50;5058002;28;46270;-79
2022/03/25 07:34:48;;;;;;;;;67.75;53.00;;;;;12.36;40.83;102113.50;5059470;28;45181;-79
2022/03/25 07:37:13;;;;;;;;;57.50;47.75;;;;;12.23;40.65;102086.81;5059377;28;45265;-79
2022/03/25 07:39:39;;;;;;;;;65.00;50.75;;;;;12.54;39.77;102129.75;5059363;28;45208;-79
2022/03/25 07:42:04;;;;;;;;;64.00;50.25;;;;;12.61;40.30;102122.84;5059784;28;45464;-79
2022/03/25 07:44:31;;;;;;;;;64.75;50.75;;;;;12.68;40.33;102125.66;5046499;28;45585;-82
2022/03/25 07:46:56;;;;;;;;;64.50;51.00;;;;;12.67;39.44;102100.09;5043439;28;45433;-75
2022/03/25 07:49:22;;;;;;;;;66.00;52.00;;;;;12.84;40.17;102117.19;5042666;28;45557;-78
2022/03/25 07:51:47;;;;;;;;;63.00;52.25;;;;;12.97;39.69;102128.91;5054720;28;45420;-78
2022/03/25 07:54:13;;;;;;;;;61.75;47.50;;;;;12.99;38.92;102107.75;5057845;28;45563;-81
2022/03/25 07:56:38;;;;;;;;;61.25;48.00;;;;;13.19;39.48;102131.94;5057915;28;45476;-81
2022/03/25 07:59:08;;;;;;;;;62.50;48.75;;;;;13.22;38.58;102124.13;5052216;28;45516;-80
2022/03/25 08:01:35;;;;;;;;;62.50;49.50;;;;;13.29;38.26;102124.25;5051469;28;45844;-82
2022/03/25 08:04:04;;;;;;;;;68.00;48.50;;;;;13.32;37.93;102111.09;5047790;28;45589;-83
2022/03/25 08:06:30;;;;;;;;;66.25;51.25;;;;;13.46;37.46;102121.91;5030461;28;45471;-80
2022/03/25 08:08:55;;;;;;;;;62.50;49.75;;;;;13.50;37.63;102114.94;5051073;28;45588;-78
2022/03/25 08:11:20;;;;;;;;;71.00;52.50;;;;;13.29;37.13;102059.84;5046262;28;47586;-81
2022/03/25 08:13:48;;;;;;;;;64.50;50.50;;;;;13.69;36.89;102123.22;5055870;28;45249;-75
2022/03/25 08:16:16;;;;;;;;;63.50;50.25;;;;;13.87;36.62;102138.50;5055257;28;45425;-79
2022/03/25 08:18:43;;;;;;;;;65.50;52.25;;;;;13.90;37.12;102124.41;5051542;28;45390;-82
2022/03/25 08:21:11;;;;;;;;;63.75;51.50;;;;;14.11;36.80;102138.00;5063758;28;46061;-84
2022/03/25 08:29:04;;;;;;;;;70.25;54.00;;;;;14.36;35.82;102111.84;5059681;28;45375;-82
2022/03/25 08:31:30;;;;;;;;;70.00;52.75;;;;;14.62;35.61;102137.00;5056172;28;46119;-81
2022/03/25 08:33:55;;;;;;;;;72.75;56.50;;;;;14.64;35.37;102116.69;5058515;28;45500;-82
2022/03/25 08:36:21;;;;;;;;;61.75;50.50;;;;;14.90;35.00;102134.69;5057447;28;45690;-80
2022/03/25 08:38:47;;;;;;;;;57.50;46.00;;;;;15.01;34.41;102135.69;5057136;28;45200;-84
2022/03/25 08:41:13;;;;;;;;;62.50;49.75;;;;;15.19;34.14;102140.34;5059246;28;46057;-89
2022/03/25 08:43:39;;;;;;;;;63.00;51.25;;;;;15.32;33.68;102135.16;5055973;28;45619;-80
2022/03/25 08:46:07;;;;;;;;;67.50;50.25;;;;;15.50;33.41;102138.88;5055819;28;45409;-76
2022/03/25 08:48:34;;;;;;;;;65.00;51.00;;;;;15.73;32.44;102140.00;5056296;28;45587;-81
2022/03/25 08:50:59;;;;;;;;;60.50;48.00;;;;;15.79;32.10;102094.00;5050831;28;46323;-80
2022/03/25 08:53:25;;;;;;;;;65.75;51.25;;;;;16.59;31.37;102129.94;5054218;28;45650;-78
2022/03/25 08:55:50;;;;;;;;;64.00;50.25;;;;;17.34;30.25;102110.69;5063484;28;45442;-78
2022/03/25 08:58:16;;;;;;;;;66.25;51.50;;;;;19.67;27.93;102137.63;5066684;28;44776;-79
2022/03/25 09:00:41;;;;;;;;;60.75;48.75;;;;;23.89;23.02;102102.81;5064587;28;46780;-76
2022/03/25 09:03:08;;;;;;;;;54.25;43.00;;;;;27.59;19.31;102135.44;5068768;28;45178;-76
2022/03/25 09:05:33;;;;;;;;;63.75;51.00;;;;;30.18;17.03;102120.59;5070273;28;45503;-78
2022/03/25 09:07:58;;;;;;;;;59.75;46.25;;;;;32.36;15.02;102120.78;5057195;28;45341;-83
2022/03/25 09:10:24;;;;;;;;;53.50;41.25;;;;;34.03;13.94;102105.22;5057961;28;45614;-80
2022/03/25 09:12:49;;;;;;;;;62.00;50.67;;;;;35.53;12.56;102103.41;5063906;28;45246;-80
2022/03/25 09:15:16;;;;;;;;;68.67;51.33;;;;;37.02;11.95;102123.56;5063729;28;45592;-82
2022/03/25 09:17:49;;;;;;;;;59.67;46.67;;;;;38.43;10.75;102125.28;5058041;28;45637;-76
2022/03/25 09:20:14;;;;;;;;;59.67;48.00;;;;;39.13;10.02;102085.03;5058330;28;45458;-77
2022/03/25 09:22:41;;;;;;;;;63.00;49.67;;;;;40.31;9.73;102135.44;5058144;28;45898;-81
2022/03/25 09:25:07;;;;;;;;;58.33;47.67;;;;;41.09;9.64;102127.75;5058441;28;45405;-85
2022/03/25 09:27:34;;;;;;;;;64.00;50.67;;;;;41.67;8.36;102106.06;5058020;28;45394;-81
2022/03/25 09:29:59;;;;;;;;;59.67;47.33;;;;;42.29;8.60;102106.97;5052466;28;45462;-80
2022/03/25 09:32:25;;;;;;;;;62.00;48.00;;;;;43.05;8.05;102119.16;5057102;28;45401;-78
2022/03/25 09:35:10;;;;;;;;;59.25;46.75;;;;;43.51;8.32;102092.78;5057355;28;45489;-80
2022/03/25 09:37:44;;;;;;;;;60.50;46.25;;;;;44.15;7.22;102109.63;5057062;28;45441;-78
2022/03/25 09:40:16;;;;;;;;;61.50;47.00;;;;;44.71;6.82;102130.88;5056288;28;46856;-77
2022/03/25 09:42:43;;;;;;;;;57.60;45.20;;;;;45.17;7.59;102123.56;5056218;28;45625;-78
2022/03/25 09:45:11;;;;;;;;;58.20;46.60;;;;;45.65;7.04;102110.38;5052705;28;45794;-78
2022/03/25 09:47:37;;;;;;;;;56.40;45.20;;;;;45.77;6.79;102099.66;5055692;28;45414;-76
2022/03/25 09:50:06;;;;;;;;;54.60;44.60;;;;;46.31;6.25;102141.31;5054720;28;45468;-78
2022/03/25 09:52:34;;;;;;;;;58.00;44.60;;;;;46.44;6.16;102119.22;5054741;28;47177;-78
2022/03/25 09:54:59;;;;;;;;;60.80;48.00;;;;;46.72;6.18;102136.16;5048703;28;45417;-81
2022/03/25 09:57:28;;;;;;;;;58.25;46.50;;;;;46.22;6.37;102129.38;5053757;28;45603;-80
2022/03/25 09:59:54;;;;;;;;;57.00;47.20;;;;;46.47;6.30;102135.59;5054910;28;46318;-80
2022/03/25 10:02:19;;;;;;;;;60.25;46.75;;;;;46.42;5.98;102131.63;5055918;28;45409;-82
2022/03/25 10:04:47;;;;;;;;;56.75;46.50;;;;;44.77;6.86;102124.59;5052302;28;46269;-83
2022/03/25 10:07:23;;;;;;;;;55.40;45.80;;;;;42.40;7.62;102119.69;5055469;28;45558;-81
2022/03/25 10:10:06;;;;;;;;;58.60;47.00;;;;;42.81;8.04;102114.34;5055070;28;46403;-81
2022/03/25 10:12:31;;;;;;;;;55.80;43.80;;;;;44.45;7.68;102116.34;5056102;28;45472;-85
2022/03/25 10:15:15;;;;;;;;;58.50;49.00;;;;;45.14;6.81;102114.69;5057202;28;45382;-83
2022/03/25 10:17:49;;;;;;;;;63.20;50.20;;;;;45.99;6.52;102115.50;5055363;28;45517;-81
2022/03/25 10:20:16;;;;;;;;;61.80;48.60;;;;;46.52;6.21;102113.56;5056327;28;46640;-86
2022/03/25 10:23:00;;;;;;;;;57.60;47.20;;;;;46.73;6.11;102109.16;5054853;28;45485;-84
2022/03/25 10:25:41;;;;;;;;;58.60;48.00;;;;;47.08;5.74;102110.25;5053724;28;45569;-82
2022/03/25 10:28:20;;;;;;;;;51.00;43.60;;;;;47.22;5.79;102112.16;5056813;28;45164;-81
2022/03/25 10:30:52;;;;;;;;;57.20;46.40;;;;;47.50;5.50;102116.97;5057496;28;46181;-84
2022/03/25 10:33:45;;;;;;;;;56.80;45.60;;;;;46.93;5.72;102101.94;5058265;28;45434;-86
2022/03/25 10:36:14;;;;;;;;;58.60;47.00;;;;;46.65;6.09;102096.19;5054426;28;45520;-85
2022/03/25 10:38:50;;;;;;;;;63.20;50.60;;;;;47.01;6.32;102112.13;5059121;28;45350;-83
2022/03/25 10:41:18;;;;;;;;;57.20;47.20;;;;;47.07;5.85;102092.63;5056627;28;46204;-87
2022/03/25 10:43:54;;;;;;;;;60.60;48.40;;;;;46.94;6.06;102100.88;5057180;28;45868;-86
2022/03/25 10:46:40;;;;;;;;;56.20;46.40;;;;;46.34;5.92;102089.88;5059995;28;45521;-84
2022/03/25 10:49:17;;;;;;;;;56.20;45.80;;;;;43.90;7.14;102078.22;5067481;28;45458;-84
2022/03/25 10:52:05;;;;;;;;;59.20;47.00;;;;;40.86;8.45;102086.72;5061501;28;45483;-82
2022/03/25 10:54:31;;;;;;;;;59.00;47.00;;;;;37.73;9.79;102038.78;5057408;28;45579;-81
2022/03/25 10:56:59;;;;;;;;;63.00;49.00;;;;;35.61;11.01;102005.00;5060259;28;45408;-80
2022/03/25 10:59:30;;;;;;;;;62.75;48.50;;;;;34.29;12.40;102087.00;5061887;28;45478;-83
2022/03/25 11:01:58;;;;;;;;;62.00;50.50;;;;;32.58;13.00;102074.81;5061338;28;46483;-84
2022/03/25 11:04:24;;;;;;;;;56.50;46.50;;;;;31.54;14.17;102093.91;5058506;28;45659;-81
2022/03/25 11:06:50;;;;;;;;;61.75;48.00;;;;;30.66;14.54;102093.56;5061398;28;45366;-82
2022/03/25 11:09:17;;;;;;;;;61.00;49.75;;;;;29.73;15.29;102074.91;5060642;28;45263;-78
2022/03/25 11:11:45;;;;;;;;;56.33;46.67;;;;;28.98;16.92;102081.38;5058611;28;45797;-81
2022/03/25 11:14:11;;;;;;;;;64.67;51.00;;;;;28.29;16.32;102081.88;5059979;28;45569;-84